sensor_id;sensor_type;location;lat;lon;timestamp;temperature;humidity
15636;DHT22;7917;50.818;6.972;2023-11-22T00:01:48;6.50;99.90
15636;DHT22;7917;50.818;6.972;2023-11-22T00:04:16;6.50;99.90
15636;DHT22;7917;50.818;6.972;2023-11-22T00:06:43;6.60;99.90
15636;DHT22;7917;50.818;6.972;2023-11-22T00:09:11;6.60;99.90
15636;DHT22;7917;50.818;6.972;2023-11-22T00:11:37;6.60;99.90
15636;DHT22;7917;50.818;6.972;2023-11-22T00:14:05;6.60;99.90
15636;DHT22;7917;50.818;6.972;2023-11-22T00:16:32;6.60;99.90
15636;DHT22;7917;50.818;6.972;2023-11-22T00:18:58;6.60;99.90
15636;DHT22;7917;50.818;6.972;2023-11-22T00:21:26;6.60;99.90
15636;DHT22;7917;50.818;6.972;2023-11-22T00:23:52;6.60;99.90
15636;DHT22;7917;50.818;6.972;2023-11-22T00:26:19;6.60;99.90
15636;DHT22;7917;50.818;6.972;2023-11-22T00:28:45;6.60;99.90
15636;DHT22;7917;50.818;6.972;2023-11-22T00:31:12;6.50;99.90
15636;DHT22;7917;50.818;6.972;2023-11-22T00:33:40;6.50;99.90
15636;DHT22;7917;50.818;6.972;2023-11-22T00:36:07;6.50;99.90
15636;DHT22;7917;50.818;6.972;2023-11-22T00:38:35;6.50;99.90
15636;DHT22;7917;50.818;6.972;2023-11-22T00:41:03;6.40;99.90
15636;DHT22;7917;50.818;6.972;2023-11-22T00:43:29;6.30;99.90
15636;DHT22;7917;50.818;6.972;2023-11-22T00:45:57;6.30;99.90
15636;DHT22;7917;50.818;6.972;2023-11-22T00:48:23;6.30;99.90
15636;DHT22;7917;50.818;6.972;2023-11-22T00:50:50;6.30;99.90
15636;DHT22;7917;50.818;6.972;2023-11-22T00:53:17;6.20;99.90
15636;DHT22;7917;50.818;6.972;2023-11-22T00:55:44;6.30;99.90
15636;DHT22;7917;50.818;6.972;2023-11-22T00:58:11;6.20;99.90
15636;DHT22;7917;50.818;6.972;2023-11-22T01:00:37;6.30;99.90
15636;DHT22;7917;50.818;6.972;2023-11-22T01:03:04;6.30;99.90
15636;DHT22;7917;50.818;6.972;2023-11-22T01:05:30;6.30;99.90
15636;DHT22;7917;50.818;6.972;2023-11-22T01:07:57;6.50;99.90
15636;DHT22;7917;50.818;6.972;2023-11-22T01:10:23;6.30;99.90
15636;DHT22;7917;50.818;6.972;2023-11-22T01:12:51;6.20;99.90
15636;DHT22;7917;50.818;6.972;2023-11-22T01:15:17;6.20;99.90
15636;DHT22;7917;50.818;6.972;2023-11-22T01:17:44;6.20;99.90
15636;DHT22;7917;50.818;6.972;2023-11-22T01:20:11;6.20;99.90
15636;DHT22;7917;50.818;6.972;2023-11-22T01:22:39;6.10;99.90
15636;DHT22;7917;50.818;6.972;2023-11-22T01:25:06;6.20;99.90
15636;DHT22;7917;50.818;6.972;2023-11-22T01:27:33;6.20;99.90
15636;DHT22;7917;50.818;6.972;2023-11-22T01:30:00;6.20;99.90
15636;DHT22;7917;50.818;6.972;2023-11-22T01:32:29;6.20;99.90
15636;DHT22;7917;50.818;6.972;2023-11-22T01:34:55;6.20;99.90
15636;DHT22;7917;50.818;6.972;2023-11-22T01:37:23;6.30;99.90
15636;DHT22;7917;50.818;6.972;2023-11-22T01:39:50;6.30;99.90
15636;DHT22;7917;50.818;6.972;2023-11-22T01:42:16;6.30;99.90
15636;DHT22;7917;50.818;6.972;2023-11-22T01:44:43;6.30;99.90
15636;DHT22;7917;50.818;6.972;2023-11-22T01:47:10;6.30;99.90
15636;DHT22;7917;50.818;6.972;2023-11-22T01:49:36;6.30;99.90
15636;DHT22;7917;50.818;6.972;2023-11-22T01:52:04;6.20;99.90
15636;DHT22;7917;50.818;6.972;2023-11-22T01:54:31;6.20;99.90
15636;DHT22;7917;50.818;6.972;2023-11-22T01:56:59;6.10;99.90
15636;DHT22;7917;50.818;6.972;2023-11-22T01:59:25;6.20;99.90
15636;DHT22;7917;50.818;6.972;2023-11-22T02:01:53;6.20;99.90
15636;DHT22;7917;50.818;6.972;2023-11-22T02:04:21;6.20;99.90
15636;DHT22;7917;50.818;6.972;2023-11-22T02:06:47;6.50;99.90
15636;DHT22;7917;50.818;6.972;2023-11-22T02:09:13;6.30;99.90
15636;DHT22;7917;50.818;6.972;2023-11-22T02:11:41;6.20;99.90
15636;DHT22;7917;50.818;6.972;2023-11-22T02:14:11;6.20;99.90
15636;DHT22;7917;50.818;6.972;2023-11-22T02:16:37;6.20;99.90
15636;DHT22;7917;50.818;6.972;2023-11-22T02:19:06;6.10;99.90
15636;DHT22;7917;50.818;6.972;2023-11-22T02:21:33;6.20;99.90
15636;DHT22;7917;50.818;6.972;2023-11-22T02:24:01;6.20;99.90
15636;DHT22;7917;50.818;6.972;2023-11-22T02:26:28;6.20;99.90
15636;DHT22;7917;50.818;6.972;2023-11-22T02:28:56;6.20;99.90
15636;DHT22;7917;50.818;6.972;2023-11-22T02:31:24;6.20;99.90
15636;DHT22;7917;50.818;6.972;2023-11-22T02:33:53;6.20;99.90
15636;DHT22;7917;50.818;6.972;2023-11-22T02:36:19;6.20;99.90
15636;DHT22;7917;50.818;6.972;2023-11-22T02:38:45;6.20;99.90
15636;DHT22;7917;50.818;6.972;2023-11-22T02:41:13;6.20;99.90
15636;DHT22;7917;50.818;6.972;2023-11-22T02:43:40;6.20;99.90
15636;DHT22;7917;50.818;6.972;2023-11-22T02:46:08;6.20;99.90
15636;DHT22;7917;50.818;6.972;2023-11-22T02:48:35;6.30;99.90
15636;DHT22;7917;50.818;6.972;2023-11-22T02:51:02;6.20;99.90
15636;DHT22;7917;50.818;6.972;2023-11-22T02:53:28;6.20;99.90
15636;DHT22;7917;50.818;6.972;2023-11-22T02:55:58;6.20;99.90
15636;DHT22;7917;50.818;6.972;2023-11-22T02:58:27;6.20;99.90
15636;DHT22;7917;50.818;6.972;2023-11-22T03:00:53;6.20;99.90
15636;DHT22;7917;50.818;6.972;2023-11-22T03:03:20;6.00;99.90
15636;DHT22;7917;50.818;6.972;2023-11-22T03:05:46;6.10;99.90
15636;DHT22;7917;50.818;6.972;2023-11-22T03:08:13;6.10;99.90
15636;DHT22;7917;50.818;6.972;2023-11-22T03:10:41;6.10;99.90
15636;DHT22;7917;50.818;6.972;2023-11-22T03:13:08;6.10;99.90
15636;DHT22;7917;50.818;6.972;2023-11-22T03:15:35;6.00;99.90
15636;DHT22;7917;50.818;6.972;2023-11-22T03:18:02;6.00;99.90
15636;DHT22;7917;50.818;6.972;2023-11-22T03:20:30;5.90;99.90
15636;DHT22;7917;50.818;6.972;2023-11-22T03:22:58;6.00;99.90
15636;DHT22;7917;50.818;6.972;2023-11-22T03:25:25;5.90;99.90
15636;DHT22;7917;50.818;6.972;2023-11-22T03:27:52;6.00;99.90
15636;DHT22;7917;50.818;6.972;2023-11-22T03:30:18;5.90;99.90
15636;DHT22;7917;50.818;6.972;2023-11-22T03:32:46;6.00;99.90
15636;DHT22;7917;50.818;6.972;2023-11-22T03:35:12;6.00;99.90
15636;DHT22;7917;50.818;6.972;2023-11-22T03:37:39;6.00;99.90
15636;DHT22;7917;50.818;6.972;2023-11-22T03:40:06;5.90;99.90
15636;DHT22;7917;50.818;6.972;2023-11-22T03:42:34;5.90;99.90
15636;DHT22;7917;50.818;6.972;2023-11-22T03:45:02;5.90;99.90
15636;DHT22;7917;50.818;6.972;2023-11-22T03:47:28;6.00;99.90
15636;DHT22;7917;50.818;6.972;2023-11-22T03:49:55;5.90;99.90
15636;DHT22;7917;50.818;6.972;2023-11-22T03:52:22;5.90;99.90
15636;DHT22;7917;50.818;6.972;2023-11-22T03:54:48;5.90;99.90
15636;DHT22;7917;50.818;6.972;2023-11-22T03:57:15;5.90;99.90
15636;DHT22;7917;50.818;6.972;2023-11-22T03:59:41;6.00;99.90
15636;DHT22;7917;50.818;6.972;2023-11-22T04:05:31;6.10;99.90
15636;DHT22;7917;50.818;6.972;2023-11-22T04:07:58;6.10;99.90
15636;DHT22;7917;50.818;6.972;2023-11-22T04:10:25;6.10;99.90
15636;DHT22;7917;50.818;6.972;2023-11-22T04:12:51;6.10;99.90
15636;DHT22;7917;50.818;6.972;2023-11-22T04:15:18;6.00;99.90
15636;DHT22;7917;50.818;6.972;2023-11-22T04:17:45;6.00;99.90
15636;DHT22;7917;50.818;6.972;2023-11-22T04:20:13;6.10;99.90
15636;DHT22;7917;50.818;6.972;2023-11-22T04:22:41;6.10;99.90
15636;DHT22;7917;50.818;6.972;2023-11-22T04:25:08;6.10;99.90
15636;DHT22;7917;50.818;6.972;2023-11-22T04:27:35;6.00;99.90
15636;DHT22;7917;50.818;6.972;2023-11-22T04:30:01;5.80;99.90
15636;DHT22;7917;50.818;6.972;2023-11-22T04:32:27;5.70;99.90
15636;DHT22;7917;50.818;6.972;2023-11-22T04:34:54;5.50;99.90
15636;DHT22;7917;50.818;6.972;2023-11-22T04:37:21;5.30;99.90
15636;DHT22;7917;50.818;6.972;2023-11-22T04:39:51;5.30;99.90
15636;DHT22;7917;50.818;6.972;2023-11-22T04:42:18;5.20;99.90
15636;DHT22;7917;50.818;6.972;2023-11-22T04:44:45;5.10;99.90
15636;DHT22;7917;50.818;6.972;2023-11-22T04:47:12;4.90;99.90
15636;DHT22;7917;50.818;6.972;2023-11-22T04:49:38;4.80;99.90
15636;DHT22;7917;50.818;6.972;2023-11-22T04:52:05;4.70;99.90
15636;DHT22;7917;50.818;6.972;2023-11-22T04:54:31;4.70;99.90
15636;DHT22;7917;50.818;6.972;2023-11-22T04:56:59;4.60;99.90
15636;DHT22;7917;50.818;6.972;2023-11-22T04:59:26;4.50;99.90
15636;DHT22;7917;50.818;6.972;2023-11-22T05:01:52;4.30;99.90
15636;DHT22;7917;50.818;6.972;2023-11-22T05:04:20;4.30;99.90
15636;DHT22;7917;50.818;6.972;2023-11-22T05:06:46;4.50;99.90
15636;DHT22;7917;50.818;6.972;2023-11-22T05:09:13;4.50;99.90
15636;DHT22;7917;50.818;6.972;2023-11-22T05:11:40;4.40;99.90
15636;DHT22;7917;50.818;6.972;2023-11-22T05:14:07;4.30;99.90
15636;DHT22;7917;50.818;6.972;2023-11-22T05:16:34;4.10;99.90
15636;DHT22;7917;50.818;6.972;2023-11-22T05:19:01;4.00;99.90
15636;DHT22;7917;50.818;6.972;2023-11-22T05:21:28;3.90;99.90
15636;DHT22;7917;50.818;6.972;2023-11-22T05:23:54;3.90;99.90
15636;DHT22;7917;50.818;6.972;2023-11-22T05:26:21;3.90;99.90
15636;DHT22;7917;50.818;6.972;2023-11-22T05:28:47;3.90;99.90
15636;DHT22;7917;50.818;6.972;2023-11-22T05:31:15;3.90;99.90
15636;DHT22;7917;50.818;6.972;2023-11-22T05:33:41;3.80;99.90
15636;DHT22;7917;50.818;6.972;2023-11-22T05:36:08;3.80;99.90
15636;DHT22;7917;50.818;6.972;2023-11-22T05:38:36;3.80;99.90
15636;DHT22;7917;50.818;6.972;2023-11-22T05:41:05;3.70;99.90
15636;DHT22;7917;50.818;6.972;2023-11-22T05:43:32;3.70;99.90
15636;DHT22;7917;50.818;6.972;2023-11-22T05:46:02;3.50;99.90
15636;DHT22;7917;50.818;6.972;2023-11-22T05:48:29;3.40;99.90
15636;DHT22;7917;50.818;6.972;2023-11-22T05:50:56;3.30;99.90
15636;DHT22;7917;50.818;6.972;2023-11-22T05:53:23;3.30;99.90
15636;DHT22;7917;50.818;6.972;2023-11-22T05:55:49;3.20;99.90
15636;DHT22;7917;50.818;6.972;2023-11-22T05:58:16;3.20;99.90
15636;DHT22;7917;50.818;6.972;2023-11-22T06:00:43;3.10;99.90
15636;DHT22;7917;50.818;6.972;2023-11-22T06:03:10;3.10;99.90
15636;DHT22;7917;50.818;6.972;2023-11-22T06:05:38;3.00;99.90
15636;DHT22;7917;50.818;6.972;2023-11-22T06:08:05;3.00;99.90
15636;DHT22;7917;50.818;6.972;2023-11-22T06:10:32;3.00;99.90
15636;DHT22;7917;50.818;6.972;2023-11-22T06:12:59;3.00;99.90
15636;DHT22;7917;50.818;6.972;2023-11-22T06:15:29;3.00;99.90
15636;DHT22;7917;50.818;6.972;2023-11-22T06:17:56;3.00;99.90
15636;DHT22;7917;50.818;6.972;2023-11-22T06:20:23;2.90;99.90
15636;DHT22;7917;50.818;6.972;2023-11-22T06:22:53;2.90;99.90
15636;DHT22;7917;50.818;6.972;2023-11-22T06:25:19;2.90;99.90
15636;DHT22;7917;50.818;6.972;2023-11-22T06:27:45;2.80;99.90
15636;DHT22;7917;50.818;6.972;2023-11-22T06:30:13;2.80;99.90
15636;DHT22;7917;50.818;6.972;2023-11-22T06:32:40;2.70;99.90
15636;DHT22;7917;50.818;6.972;2023-11-22T06:35:09;2.70;99.90
15636;DHT22;7917;50.818;6.972;2023-11-22T06:37:35;2.70;99.90
15636;DHT22;7917;50.818;6.972;2023-11-22T06:40:03;2.60;99.90
15636;DHT22;7917;50.818;6.972;2023-11-22T06:42:30;2.50;99.90
15636;DHT22;7917;50.818;6.972;2023-11-22T06:44:57;2.40;99.90
15636;DHT22;7917;50.818;6.972;2023-11-22T06:47:26;2.40;99.90
15636;DHT22;7917;50.818;6.972;2023-11-22T06:49:53;2.30;99.90
15636;DHT22;7917;50.818;6.972;2023-11-22T06:52:20;2.20;99.90
15636;DHT22;7917;50.818;6.972;2023-11-22T06:54:46;2.20;99.90
15636;DHT22;7917;50.818;6.972;2023-11-22T06:57:13;2.20;99.90
15636;DHT22;7917;50.818;6.972;2023-11-22T06:59:40;2.10;99.90
15636;DHT22;7917;50.818;6.972;2023-11-22T07:02:07;2.00;99.90
15636;DHT22;7917;50.818;6.972;2023-11-22T07:04:34;2.00;99.90
15636;DHT22;7917;50.818;6.972;2023-11-22T07:07:01;1.90;99.90
15636;DHT22;7917;50.818;6.972;2023-11-22T07:09:30;1.90;99.90
15636;DHT22;7917;50.818;6.972;2023-11-22T07:11:58;1.90;99.90
15636;DHT22;7917;50.818;6.972;2023-11-22T07:14:26;1.90;99.90
15636;DHT22;7917;50.818;6.972;2023-11-22T07:16:52;1.90;99.90
15636;DHT22;7917;50.818;6.972;2023-11-22T07:19:19;1.90;99.90
15636;DHT22;7917;50.818;6.972;2023-11-22T07:21:46;1.90;99.90
15636;DHT22;7917;50.818;6.972;2023-11-22T07:24:14;1.90;99.90
15636;DHT22;7917;50.818;6.972;2023-11-22T07:26:41;1.90;99.90
15636;DHT22;7917;50.818;6.972;2023-11-22T07:29:08;2.00;99.90
15636;DHT22;7917;50.818;6.972;2023-11-22T07:31:36;2.00;99.90
15636;DHT22;7917;50.818;6.972;2023-11-22T07:34:02;2.00;99.90
15636;DHT22;7917;50.818;6.972;2023-11-22T07:36:29;2.00;99.90
15636;DHT22;7917;50.818;6.972;2023-11-22T07:38:57;1.90;99.90
15636;DHT22;7917;50.818;6.972;2023-11-22T07:41:24;1.90;99.90
15636;DHT22;7917;50.818;6.972;2023-11-22T07:43:51;2.00;99.90
15636;DHT22;7917;50.818;6.972;2023-11-22T07:46:18;2.00;99.90
15636;DHT22;7917;50.818;6.972;2023-11-22T07:48:45;2.10;99.90
15636;DHT22;7917;50.818;6.972;2023-11-22T07:51:13;2.10;99.90
15636;DHT22;7917;50.818;6.972;2023-11-22T07:53:42;2.20;99.90
15636;DHT22;7917;50.818;6.972;2023-11-22T07:56:09;2.30;99.90
15636;DHT22;7917;50.818;6.972;2023-11-22T07:58:37;2.40;99.90
15636;DHT22;7917;50.818;6.972;2023-11-22T08:01:04;2.40;99.90
15636;DHT22;7917;50.818;6.972;2023-11-22T08:03:31;2.60;99.90
15636;DHT22;7917;50.818;6.972;2023-11-22T08:06:02;2.70;99.90
15636;DHT22;7917;50.818;6.972;2023-11-22T08:08:31;2.90;99.90
15636;DHT22;7917;50.818;6.972;2023-11-22T08:11:01;3.00;99.90
15636;DHT22;7917;50.818;6.972;2023-11-22T08:13:28;3.20;99.90
15636;DHT22;7917;50.818;6.972;2023-11-22T08:15:56;3.30;99.90
15636;DHT22;7917;50.818;6.972;2023-11-22T08:18:23;3.40;99.90
15636;DHT22;7917;50.818;6.972;2023-11-22T08:20:50;3.60;99.90
15636;DHT22;7917;50.818;6.972;2023-11-22T08:23:17;3.70;99.90
15636;DHT22;7917;50.818;6.972;2023-11-22T08:25:44;3.90;99.90
15636;DHT22;7917;50.818;6.972;2023-11-22T08:28:11;4.10;99.90
15636;DHT22;7917;50.818;6.972;2023-11-22T08:30:39;4.10;99.90
15636;DHT22;7917;50.818;6.972;2023-11-22T08:33:07;4.20;99.90
15636;DHT22;7917;50.818;6.972;2023-11-22T08:35:33;4.30;99.90
15636;DHT22;7917;50.818;6.972;2023-11-22T08:38:00;4.40;99.90
15636;DHT22;7917;50.818;6.972;2023-11-22T08:40:29;4.50;99.90
15636;DHT22;7917;50.818;6.972;2023-11-22T08:42:56;4.60;99.90
15636;DHT22;7917;50.818;6.972;2023-11-22T08:45:24;4.70;99.90
15636;DHT22;7917;50.818;6.972;2023-11-22T08:47:50;4.70;99.90
15636;DHT22;7917;50.818;6.972;2023-11-22T08:50:17;4.70;99.90
15636;DHT22;7917;50.818;6.972;2023-11-22T08:52:45;4.90;99.90
15636;DHT22;7917;50.818;6.972;2023-11-22T08:55:13;4.90;99.90
15636;DHT22;7917;50.818;6.972;2023-11-22T08:57:41;5.00;99.90
15636;DHT22;7917;50.818;6.972;2023-11-22T09:00:09;5.10;99.90
15636;DHT22;7917;50.818;6.972;2023-11-22T09:02:37;5.10;99.90
15636;DHT22;7917;50.818;6.972;2023-11-22T09:05:05;5.10;99.90
15636;DHT22;7917;50.818;6.972;2023-11-22T09:07:34;5.10;99.90
15636;DHT22;7917;50.818;6.972;2023-11-22T09:10:02;5.10;99.90
15636;DHT22;7917;50.818;6.972;2023-11-22T09:12:35;5.30;99.90
15636;DHT22;7917;50.818;6.972;2023-11-22T09:15:04;5.40;99.90
15636;DHT22;7917;50.818;6.972;2023-11-22T09:17:34;5.50;99.90
15636;DHT22;7917;50.818;6.972;2023-11-22T09:20:01;5.50;99.90
15636;DHT22;7917;50.818;6.972;2023-11-22T09:22:29;5.40;99.90
15636;DHT22;7917;50.818;6.972;2023-11-22T09:24:56;5.30;99.90
15636;DHT22;7917;50.818;6.972;2023-11-22T09:27:23;5.30;99.90
15636;DHT22;7917;50.818;6.972;2023-11-22T09:29:51;5.40;99.90
15636;DHT22;7917;50.818;6.972;2023-11-22T09:32:18;5.50;99.90
15636;DHT22;7917;50.818;6.972;2023-11-22T09:34:45;5.60;99.90
15636;DHT22;7917;50.818;6.972;2023-11-22T09:37:13;5.70;99.90
15636;DHT22;7917;50.818;6.972;2023-11-22T09:39:41;5.70;99.90
15636;DHT22;7917;50.818;6.972;2023-11-22T09:42:07;5.60;99.90
15636;DHT22;7917;50.818;6.972;2023-11-22T09:44:34;5.60;99.90
15636;DHT22;7917;50.818;6.972;2023-11-22T09:47:02;5.90;99.90
15636;DHT22;7917;50.818;6.972;2023-11-22T09:49:32;6.00;99.90
15636;DHT22;7917;50.818;6.972;2023-11-22T09:52:02;6.00;99.90
15636;DHT22;7917;50.818;6.972;2023-11-22T09:54:31;6.00;99.90
15636;DHT22;7917;50.818;6.972;2023-11-22T09:56:59;6.10;99.90
15636;DHT22;7917;50.818;6.972;2023-11-22T09:59:29;6.20;99.90
15636;DHT22;7917;50.818;6.972;2023-11-22T10:01:59;6.10;99.90
15636;DHT22;7917;50.818;6.972;2023-11-22T10:04:26;6.20;99.90
15636;DHT22;7917;50.818;6.972;2023-11-22T10:06:57;6.40;99.90
15636;DHT22;7917;50.818;6.972;2023-11-22T10:09:25;6.50;99.90
15636;DHT22;7917;50.818;6.972;2023-11-22T10:11:57;6.50;99.90
15636;DHT22;7917;50.818;6.972;2023-11-22T10:14:25;6.70;99.90
15636;DHT22;7917;50.818;6.972;2023-11-22T10:16:58;6.80;99.90
15636;DHT22;7917;50.818;6.972;2023-11-22T10:19:26;6.90;99.90
15636;DHT22;7917;50.818;6.972;2023-11-22T10:22:03;7.10;99.90
15636;DHT22;7917;50.818;6.972;2023-11-22T10:24:31;7.20;99.90
15636;DHT22;7917;50.818;6.972;2023-11-22T10:26:59;7.10;99.90
15636;DHT22;7917;50.818;6.972;2023-11-22T10:29:26;7.30;99.90
15636;DHT22;7917;50.818;6.972;2023-11-22T10:31:53;7.30;99.90
15636;DHT22;7917;50.818;6.972;2023-11-22T10:34:21;7.40;99.90
15636;DHT22;7917;50.818;6.972;2023-11-22T10:36:48;7.40;99.90
15636;DHT22;7917;50.818;6.972;2023-11-22T10:39:19;7.40;99.90
15636;DHT22;7917;50.818;6.972;2023-11-22T10:41:46;7.70;99.90
15636;DHT22;7917;50.818;6.972;2023-11-22T10:44:16;7.60;99.90
15636;DHT22;7917;50.818;6.972;2023-11-22T10:46:43;7.60;99.90
15636;DHT22;7917;50.818;6.972;2023-11-22T10:49:12;7.60;99.90
15636;DHT22;7917;50.818;6.972;2023-11-22T10:51:40;7.60;99.90
15636;DHT22;7917;50.818;6.972;2023-11-22T10:54:08;7.60;99.90
15636;DHT22;7917;50.818;6.972;2023-11-22T10:56:38;7.50;99.90
15636;DHT22;7917;50.818;6.972;2023-11-22T10:59:12;7.60;99.90
15636;DHT22;7917;50.818;6.972;2023-11-22T11:01:44;7.40;99.90
15636;DHT22;7917;50.818;6.972;2023-11-22T11:04:18;7.50;99.90
15636;DHT22;7917;50.818;6.972;2023-11-22T11:06:48;7.50;99.90
15636;DHT22;7917;50.818;6.972;2023-11-22T11:09:18;7.60;99.90
15636;DHT22;7917;50.818;6.972;2023-11-22T11:11:48;7.50;99.90
15636;DHT22;7917;50.818;6.972;2023-11-22T11:14:16;7.40;99.90
15636;DHT22;7917;50.818;6.972;2023-11-22T11:16:44;7.40;99.90
15636;DHT22;7917;50.818;6.972;2023-11-22T11:19:15;7.50;99.90
15636;DHT22;7917;50.818;6.972;2023-11-22T11:21:43;7.60;99.90
15636;DHT22;7917;50.818;6.972;2023-11-22T11:24:10;7.60;99.90
15636;DHT22;7917;50.818;6.972;2023-11-22T11:26:38;7.50;99.90
15636;DHT22;7917;50.818;6.972;2023-11-22T11:29:06;7.50;99.90
15636;DHT22;7917;50.818;6.972;2023-11-22T11:31:38;7.60;99.90
15636;DHT22;7917;50.818;6.972;2023-11-22T11:34:07;7.60;99.90
15636;DHT22;7917;50.818;6.972;2023-11-22T11:36:37;7.50;99.90
15636;DHT22;7917;50.818;6.972;2023-11-22T11:39:06;7.60;99.90
15636;DHT22;7917;50.818;6.972;2023-11-22T11:41:35;7.60;99.90
15636;DHT22;7917;50.818;6.972;2023-11-22T11:44:04;7.40;99.90
15636;DHT22;7917;50.818;6.972;2023-11-22T11:46:34;7.50;99.90
15636;DHT22;7917;50.818;6.972;2023-11-22T11:49:06;7.50;99.90
15636;DHT22;7917;50.818;6.972;2023-11-22T11:51:33;7.50;99.90
15636;DHT22;7917;50.818;6.972;2023-11-22T11:54:01;7.40;99.90
15636;DHT22;7917;50.818;6.972;2023-11-22T11:56:28;7.50;99.90
15636;DHT22;7917;50.818;6.972;2023-11-22T11:58:57;7.60;99.90
15636;DHT22;7917;50.818;6.972;2023-11-22T12:01:28;7.80;99.90
15636;DHT22;7917;50.818;6.972;2023-11-22T12:03:56;7.70;99.90
15636;DHT22;7917;50.818;6.972;2023-11-22T12:06:23;7.70;99.90
15636;DHT22;7917;50.818;6.972;2023-11-22T12:08:50;7.80;99.90
15636;DHT22;7917;50.818;6.972;2023-11-22T12:11:17;7.80;99.90
15636;DHT22;7917;50.818;6.972;2023-11-22T12:13:44;7.90;99.90
15636;DHT22;7917;50.818;6.972;2023-11-22T12:16:14;8.00;99.90
15636;DHT22;7917;50.818;6.972;2023-11-22T12:18:43;8.20;99.90
15636;DHT22;7917;50.818;6.972;2023-11-22T12:21:12;8.20;99.90
15636;DHT22;7917;50.818;6.972;2023-11-22T12:23:41;8.20;99.90
15636;DHT22;7917;50.818;6.972;2023-11-22T12:26:11;8.30;99.90
15636;DHT22;7917;50.818;6.972;2023-11-22T12:28:39;8.20;99.90
15636;DHT22;7917;50.818;6.972;2023-11-22T12:31:10;8.10;99.90
15636;DHT22;7917;50.818;6.972;2023-11-22T12:33:39;7.80;99.90
15636;DHT22;7917;50.818;6.972;2023-11-22T12:36:08;7.70;99.90
15636;DHT22;7917;50.818;6.972;2023-11-22T12:38:37;7.50;99.90
15636;DHT22;7917;50.818;6.972;2023-11-22T12:41:06;7.30;99.90
15636;DHT22;7917;50.818;6.972;2023-11-22T12:43:34;7.10;99.90
15636;DHT22;7917;50.818;6.972;2023-11-22T12:46:01;6.90;99.90
15636;DHT22;7917;50.818;6.972;2023-11-22T12:48:28;6.80;99.90
15636;DHT22;7917;50.818;6.972;2023-11-22T12:50:56;6.90;99.90
15636;DHT22;7917;50.818;6.972;2023-11-22T12:53:24;7.00;99.90
15636;DHT22;7917;50.818;6.972;2023-11-22T12:55:53;7.10;99.90
15636;DHT22;7917;50.818;6.972;2023-11-22T12:58:21;7.20;99.90
15636;DHT22;7917;50.818;6.972;2023-11-22T13:00:49;7.30;99.90
15636;DHT22;7917;50.818;6.972;2023-11-22T13:03:16;7.30;99.90
15636;DHT22;7917;50.818;6.972;2023-11-22T13:05:44;7.30;99.90
15636;DHT22;7917;50.818;6.972;2023-11-22T13:08:12;7.30;99.90
15636;DHT22;7917;50.818;6.972;2023-11-22T13:10:40;7.20;99.90
15636;DHT22;7917;50.818;6.972;2023-11-22T13:13:08;7.30;99.90
15636;DHT22;7917;50.818;6.972;2023-11-22T13:15:35;7.30;99.90
15636;DHT22;7917;50.818;6.972;2023-11-22T13:18:02;7.30;99.90
15636;DHT22;7917;50.818;6.972;2023-11-22T13:20:29;7.40;99.90
15636;DHT22;7917;50.818;6.972;2023-11-22T13:22:56;7.30;99.90
15636;DHT22;7917;50.818;6.972;2023-11-22T13:25:24;7.40;99.90
15636;DHT22;7917;50.818;6.972;2023-11-22T13:27:52;7.40;99.90
15636;DHT22;7917;50.818;6.972;2023-11-22T13:30:20;7.40;99.90
15636;DHT22;7917;50.818;6.972;2023-11-22T13:32:48;7.40;99.90
15636;DHT22;7917;50.818;6.972;2023-11-22T13:35:16;7.40;99.90
15636;DHT22;7917;50.818;6.972;2023-11-22T13:37:44;7.40;99.90
15636;DHT22;7917;50.818;6.972;2023-11-22T13:40:12;7.30;99.90
15636;DHT22;7917;50.818;6.972;2023-11-22T13:42:41;7.30;99.90
15636;DHT22;7917;50.818;6.972;2023-11-22T13:45:09;7.30;99.90
15636;DHT22;7917;50.818;6.972;2023-11-22T13:47:36;7.20;99.90
15636;DHT22;7917;50.818;6.972;2023-11-22T13:50:04;7.20;99.90
15636;DHT22;7917;50.818;6.972;2023-11-22T13:52:32;7.10;99.90
15636;DHT22;7917;50.818;6.972;2023-11-22T13:54:59;7.20;99.90
15636;DHT22;7917;50.818;6.972;2023-11-22T13:57:28;7.20;99.90
15636;DHT22;7917;50.818;6.972;2023-11-22T13:59:57;7.30;99.90
15636;DHT22;7917;50.818;6.972;2023-11-22T14:02:24;7.30;99.90
15636;DHT22;7917;50.818;6.972;2023-11-22T14:04:52;7.40;99.90
15636;DHT22;7917;50.818;6.972;2023-11-22T14:07:19;7.40;99.90
15636;DHT22;7917;50.818;6.972;2023-11-22T14:09:46;7.40;99.90
15636;DHT22;7917;50.818;6.972;2023-11-22T14:12:15;7.40;99.90
15636;DHT22;7917;50.818;6.972;2023-11-22T14:14:44;7.30;99.90
15636;DHT22;7917;50.818;6.972;2023-11-22T14:17:11;7.30;99.90
15636;DHT22;7917;50.818;6.972;2023-11-22T14:19:41;7.40;99.90
15636;DHT22;7917;50.818;6.972;2023-11-22T14:22:09;7.30;99.90
15636;DHT22;7917;50.818;6.972;2023-11-22T14:24:36;7.30;99.90
15636;DHT22;7917;50.818;6.972;2023-11-22T14:27:05;7.20;99.90
15636;DHT22;7917;50.818;6.972;2023-11-22T14:29:32;7.00;99.90
15636;DHT22;7917;50.818;6.972;2023-11-22T14:31:59;7.00;99.90
15636;DHT22;7917;50.818;6.972;2023-11-22T14:34:26;6.90;99.90
15636;DHT22;7917;50.818;6.972;2023-11-22T14:36:53;6.80;99.90
15636;DHT22;7917;50.818;6.972;2023-11-22T14:39:21;6.70;99.90
15636;DHT22;7917;50.818;6.972;2023-11-22T14:41:49;6.60;99.90
15636;DHT22;7917;50.818;6.972;2023-11-22T14:44:16;6.60;99.90
15636;DHT22;7917;50.818;6.972;2023-11-22T14:46:44;6.50;99.90
15636;DHT22;7917;50.818;6.972;2023-11-22T14:49:11;6.50;99.90
15636;DHT22;7917;50.818;6.972;2023-11-22T14:51:40;6.40;99.90
15636;DHT22;7917;50.818;6.972;2023-11-22T14:54:07;6.30;99.90
15636;DHT22;7917;50.818;6.972;2023-11-22T14:56:35;6.20;99.90
15636;DHT22;7917;50.818;6.972;2023-11-22T14:59:04;6.20;99.90
15636;DHT22;7917;50.818;6.972;2023-11-22T15:01:31;6.10;99.90
15636;DHT22;7917;50.818;6.972;2023-11-22T15:03:58;6.10;99.90
15636;DHT22;7917;50.818;6.972;2023-11-22T15:06:25;6.00;99.90
15636;DHT22;7917;50.818;6.972;2023-11-22T15:08:52;6.00;99.90
15636;DHT22;7917;50.818;6.972;2023-11-22T15:11:19;5.90;99.90
15636;DHT22;7917;50.818;6.972;2023-11-22T15:13:47;5.80;99.90
15636;DHT22;7917;50.818;6.972;2023-11-22T15:16:14;5.80;99.90
15636;DHT22;7917;50.818;6.972;2023-11-22T15:18:44;5.80;99.90
15636;DHT22;7917;50.818;6.972;2023-11-22T15:21:11;5.70;99.90
15636;DHT22;7917;50.818;6.972;2023-11-22T15:23:39;5.70;99.90
15636;DHT22;7917;50.818;6.972;2023-11-22T15:26:08;5.70;99.90
15636;DHT22;7917;50.818;6.972;2023-11-22T15:28:36;5.60;99.90
15636;DHT22;7917;50.818;6.972;2023-11-22T15:31:04;5.60;99.90
15636;DHT22;7917;50.818;6.972;2023-11-22T15:33:31;5.60;99.90
15636;DHT22;7917;50.818;6.972;2023-11-22T15:35:59;5.60;99.90
15636;DHT22;7917;50.818;6.972;2023-11-22T15:38:28;5.50;99.90
15636;DHT22;7917;50.818;6.972;2023-11-22T15:40:56;5.50;99.90
15636;DHT22;7917;50.818;6.972;2023-11-22T15:43:22;5.40;99.90
15636;DHT22;7917;50.818;6.972;2023-11-22T15:45:49;5.40;99.90
15636;DHT22;7917;50.818;6.972;2023-11-22T15:48:17;5.40;99.90
15636;DHT22;7917;50.818;6.972;2023-11-22T15:50:44;5.30;99.90
15636;DHT22;7917;50.818;6.972;2023-11-22T15:53:11;5.40;99.90
15636;DHT22;7917;50.818;6.972;2023-11-22T15:55:39;5.30;99.90
15636;DHT22;7917;50.818;6.972;2023-11-22T15:58:06;5.30;99.90
15636;DHT22;7917;50.818;6.972;2023-11-22T16:00:33;5.40;99.90
15636;DHT22;7917;50.818;6.972;2023-11-22T16:03:01;5.40;99.90
15636;DHT22;7917;50.818;6.972;2023-11-22T16:05:30;5.40;99.90
15636;DHT22;7917;50.818;6.972;2023-11-22T16:07:57;5.40;99.90